Time;durP1;ratioP1;P1;durP2;ratioP2;P2;SDS_P1;SDS_P2;PMS_P1;PMS_P2;Temp;Humidity;BMP_temperature;BMP_pressure;BME280_temperature;BME280_humidity;BME280_pressure;Samples;Min_cycle;Max_cycle;Signal;HPM_P1;HPM_P2
2023/09/21 00:00:50;;;;;;;2.77;2.43;;;;;;;;;;5032812;28;20178;-69
2023/09/21 00:03:16;;;;;;;5.37;2.60;;;;;;;;;;5032592;28;20569;-69
2023/09/21 00:05:47;;;;;;;5.30;2.70;;;;;;;;;;5032747;28;20182;-69
2023/09/21 00:08:13;;;;;;;4.53;2.83;;;;;;;;;;5032903;28;20156;-68
2023/09/21 00:10:39;;;;;;;7.50;3.10;;;;;;;;;;5031442;28;20197;-69
2023/09/21 00:13:05;;;;;;;4.20;2.70;;;;;;;;;;5032587;28;20187;-69
2023/09/21 00:15:31;;;;;;;4.87;2.67;;;;;;;;;;5033582;28;20179;-70
2023/09/21 00:17:58;;;;;;;3.27;2.57;;;;;;;;;;5036712;28;20543;-69
2023/09/21 00:20:36;;;;;;;3.13;2.33;;;;;;;;;;5036566;28;20231;-69
2023/09/21 00:23:06;;;;;;;3.53;2.40;;;;;;;;;;5036559;28;20182;-69
2023/09/21 00:25:32;;;;;;;3.37;2.87;;;;;;;;;;5036568;28;20155;-69
2023/09/21 00:27:58;;;;;;;4.07;2.80;;;;;;;;;;5036656;28;20183;-69
2023/09/21 00:30:24;;;;;;;3.37;2.80;;;;;;;;;;5036375;28;20199;-69
2023/09/21 00:32:50;;;;;;;4.00;2.80;;;;;;;;;;5036280;28;20179;-69
2023/09/21 00:35:18;;;;;;;4.23;2.37;;;;;;;;;;5036323;28;20179;-69
2023/09/21 00:37:46;;;;;;;3.73;2.43;;;;;;;;;;5035028;28;20229;-69
2023/09/21 00:40:18;;;;;;;4.30;2.77;;;;;;;;;;5034754;28;20222;-69
2023/09/21 00:42:44;;;;;;;4.03;2.67;;;;;;;;;;5036191;28;20497;-68
2023/09/21 00:45:11;;;;;;;4.40;2.50;;;;;;;;;;5034802;28;20183;-69
2023/09/21 00:47:44;;;;;;;2.63;2.40;;;;;;;;;;5036405;28;20628;-69
2023/09/21 00:50:12;;;;;;;4.43;2.60;;;;;;;;;;5036267;28;20191;-69
2023/09/21 00:52:40;;;;;;;3.87;2.90;;;;;;;;;;5036002;28;20176;-69
2023/09/21 00:55:07;;;;;;;2.90;2.23;;;;;;;;;;5035975;28;20179;-69
2023/09/21 00:57:33;;;;;;;3.77;2.60;;;;;;;;;;5036053;28;20237;-69
2023/09/21 00:59:59;;;;;;;2.63;2.43;;;;;;;;;;5035851;28;20672;-69
2023/09/21 01:02:25;;;;;;;4.97;2.40;;;;;;;;;;5036020;28;20638;-69
2023/09/21 01:04:52;;;;;;;3.13;2.30;;;;;;;;;;5034517;28;20206;-69
2023/09/21 01:07:22;;;;;;;6.20;2.80;;;;;;;;;;5035826;28;20590;-69
2023/09/21 01:09:50;;;;;;;4.03;2.60;;;;;;;;;;5035749;28;20191;-69
2023/09/21 01:12:16;;;;;;;5.53;2.67;;;;;;;;;;5035735;28;20258;-69
2023/09/21 01:14:43;;;;;;;5.27;2.50;;;;;;;;;;5035615;28;20206;-69
2023/09/21 01:17:09;;;;;;;7.23;2.80;;;;;;;;;;5034284;28;20248;-70
2023/09/21 01:19:35;;;;;;;2.80;2.50;;;;;;;;;;5035469;28;20191;-68
2023/09/21 01:22:08;;;;;;;3.73;2.83;;;;;;;;;;5035873;28;20179;-69
2023/09/21 01:24:35;;;;;;;4.77;2.73;;;;;;;;;;5034228;28;20205;-69
2023/09/21 01:27:01;;;;;;;4.90;2.50;;;;;;;;;;5034542;28;20258;-69
2023/09/21 01:29:29;;;;;;;3.30;2.40;;;;;;;;;;5033986;28;20203;-69
2023/09/21 01:31:56;;;;;;;3.70;2.60;;;;;;;;;;5034027;28;20175;-69
2023/09/21 01:34:22;;;;;;;6.43;2.57;;;;;;;;;;5035301;28;20171;-68
2023/09/21 01:36:48;;;;;;;4.20;2.47;;;;;;;;;;5035240;28;20180;-69
2023/09/21 01:39:14;;;;;;;3.47;2.43;;;;;;;;;;5035144;28;20302;-69
2023/09/21 01:41:41;;;;;;;3.13;2.80;;;;;;;;;;5035109;28;20179;-69
2023/09/21 01:44:08;;;;;;;4.80;2.67;;;;;;;;;;5035056;28;20282;-69
2023/09/21 01:46:34;;;;;;;5.23;2.77;;;;;;;;;;5035013;28;20167;-69
2023/09/21 01:49:00;;;;;;;3.93;2.50;;;;;;;;;;5035103;28;20337;-69
2023/09/21 01:51:26;;;;;;;4.93;2.90;;;;;;;;;;5034966;28;20320;-69
2023/09/21 01:53:53;;;;;;;4.30;2.63;;;;;;;;;;5034922;28;20190;-69
2023/09/21 01:56:20;;;;;;;3.23;2.50;;;;;;;;;;5035054;28;20179;-69
2023/09/21 01:58:46;;;;;;;3.10;2.60;;;;;;;;;;5034705;28;20195;-69
2023/09/21 02:01:18;;;;;;;3.57;3.10;;;;;;;;;;5034769;28;20186;-69
2023/09/21 02:03:44;;;;;;;5.37;2.70;;;;;;;;;;5034946;28;20191;-69
2023/09/21 02:06:11;;;;;;;6.67;3.10;;;;;;;;;;5034699;28;20182;-69
2023/09/21 02:08:38;;;;;;;5.53;2.77;;;;;;;;;;5034869;28;20191;-69
2023/09/21 02:11:05;;;;;;;4.30;2.53;;;;;;;;;;5034852;28;20611;-69
2023/09/21 02:13:32;;;;;;;6.67;2.80;;;;;;;;;;5033232;28;20603;-69
2023/09/21 02:15:57;;;;;;;3.03;2.40;;;;;;;;;;5034641;28;20218;-69
2023/09/21 02:18:23;;;;;;;5.47;2.90;;;;;;;;;;5033205;28;20187;-69
2023/09/21 02:20:49;;;;;;;2.93;2.37;;;;;;;;;;5034471;28;20225;-68
2023/09/21 02:23:15;;;;;;;3.27;2.50;;;;;;;;;;5034351;28;20203;-68
2023/09/21 02:25:42;;;;;;;2.67;2.10;;;;;;;;;;5034402;28;20182;-69
2023/09/21 02:28:14;;;;;;;6.13;2.73;;;;;;;;;;5034256;28;20178;-68
2023/09/21 02:30:43;;;;;;;4.40;2.63;;;;;;;;;;5033381;28;20284;-68
2023/09/21 02:33:09;;;;;;;5.20;2.57;;;;;;;;;;5033151;28;20186;-68
2023/09/21 02:35:35;;;;;;;3.27;2.57;;;;;;;;;;5034403;28;20610;-68
2023/09/21 02:38:05;;;;;;;4.77;2.57;;;;;;;;;;5034434;28;20229;-68
2023/09/21 02:40:31;;;;;;;4.67;2.57;;;;;;;;;;5033844;28;20696;-68
2023/09/21 02:42:57;;;;;;;4.70;2.90;;;;;;;;;;5033839;28;20262;-68
2023/09/21 02:45:24;;;;;;;3.67;2.40;;;;;;;;;;5033880;28;20554;-68
2023/09/21 02:47:51;;;;;;;4.07;2.60;;;;;;;;;;5034384;28;20659;-68
2023/09/21 02:50:27;;;;;;;2.57;2.37;;;;;;;;;;5033885;28;20624;-68
2023/09/21 02:52:54;;;;;;;4.00;2.57;;;;;;;;;;5033747;28;20221;-68
2023/09/21 02:55:20;;;;;;;3.20;2.30;;;;;;;;;;5033698;28;20175;-68
2023/09/21 02:57:49;;;;;;;3.73;2.57;;;;;;;;;;5033959;28;20187;-68
2023/09/21 03:00:29;;;;;;;3.47;2.60;;;;;;;;;;5033609;28;20187;-68
2023/09/21 03:02:56;;;;;;;4.83;2.70;;;;;;;;;;5034141;28;20179;-68
2023/09/21 03:05:27;;;;;;;3.03;2.63;;;;;;;;;;5033435;28;20172;-68
2023/09/21 03:07:54;;;;;;;4.23;2.50;;;;;;;;;;5032118;28;20197;-68
2023/09/21 03:10:20;;;;;;;4.10;2.70;;;;;;;;;;5033565;28;20188;-69
2023/09/21 03:12:51;;;;;;;3.57;2.40;;;;;;;;;;5033632;28;20172;-68
2023/09/21 03:15:21;;;;;;;3.20;2.40;;;;;;;;;;5033748;28;20164;-69
2023/09/21 03:17:48;;;;;;;6.37;2.30;;;;;;;;;;5033782;28;20159;-68
2023/09/21 03:23:05;;;;;;;3.03;2.67;;;;;;;;;;5033347;28;20182;-68
2023/09/21 03:25:32;;;;;;;3.27;2.97;;;;;;;;;;5033229;28;20169;-69
2023/09/21 03:27:59;;;;;;;5.20;3.00;;;;;;;;;;5033087;28;20592;-68
2023/09/21 03:30:29;;;;;;;5.87;3.27;;;;;;;;;;5031708;28;20253;-68
2023/09/21 03:32:55;;;;;;;3.33;2.63;;;;;;;;;;5032978;28;20171;-69
2023/09/21 03:35:24;;;;;;;2.83;2.47;;;;;;;;;;5033212;28;20645;-68
2023/09/21 03:37:50;;;;;;;5.17;2.60;;;;;;;;;;5033184;28;20285;-68
2023/09/21 03:40:17;;;;;;;3.20;2.30;;;;;;;;;;5032720;28;20210;-69
2023/09/21 03:42:44;;;;;;;3.23;2.50;;;;;;;;;;5033226;28;20590;-68
2023/09/21 03:45:11;;;;;;;3.37;2.93;;;;;;;;;;5032813;28;20230;-69
2023/09/21 03:47:40;;;;;;;5.40;2.33;;;;;;;;;;5033182;28;20528;-68
2023/09/21 03:50:11;;;;;;;3.43;2.77;;;;;;;;;;5032467;28;20191;-68
2023/09/21 03:52:37;;;;;;;3.30;2.60;;;;;;;;;;5033363;28;20242;-68
2023/09/21 03:55:04;;;;;;;6.23;2.80;;;;;;;;;;5033056;28;20233;-69
2023/09/21 03:57:30;;;;;;;8.93;2.97;;;;;;;;;;5032636;28;20663;-68
2023/09/21 03:59:57;;;;;;;5.53;2.50;;;;;;;;;;5032630;28;20199;-69
2023/09/21 04:02:24;;;;;;;5.10;2.43;;;;;;;;;;5057296;22;20234;-67
2023/09/21 04:04:51;;;;;;;4.50;2.67;;;;;;;;;;5033163;28;20199;-67
2023/09/21 04:07:17;;;;;;;3.90;2.80;;;;;;;;;;5031925;28;20248;-67
2023/09/21 04:09:44;;;;;;;6.90;2.70;;;;;;;;;;5033477;28;20179;-67
2023/09/21 04:12:11;;;;;;;4.73;3.00;;;;;;;;;;5033448;28;20194;-67
2023/09/21 04:14:37;;;;;;;4.03;3.10;;;;;;;;;;5033554;28;20229;-67
2023/09/21 04:17:03;;;;;;;3.77;2.93;;;;;;;;;;5033331;28;20187;-67
2023/09/21 04:19:30;;;;;;;8.43;3.17;;;;;;;;;;5033037;28;20226;-67
2023/09/21 04:21:56;;;;;;;3.47;2.50;;;;;;;;;;5032195;28;20199;-67
2023/09/21 04:24:22;;;;;;;4.00;2.63;;;;;;;;;;5031487;28;20703;-67
2023/09/21 04:26:48;;;;;;;3.93;2.67;;;;;;;;;;5031347;28;20249;-67
2023/09/21 04:29:15;;;;;;;5.83;2.90;;;;;;;;;;5032763;28;20641;-67
2023/09/21 04:31:41;;;;;;;5.57;2.90;;;;;;;;;;5032689;28;20191;-67
2023/09/21 04:34:07;;;;;;;4.83;2.80;;;;;;;;;;5033189;28;20257;-67
2023/09/21 04:36:33;;;;;;;5.53;3.20;;;;;;;;;;5032762;28;20743;-68
2023/09/21 04:39:00;;;;;;;6.03;2.93;;;;;;;;;;5031247;28;20559;-66
2023/09/21 04:41:27;;;;;;;6.67;2.80;;;;;;;;;;5031159;28;20688;-67
2023/09/21 04:43:54;;;;;;;5.33;2.67;;;;;;;;;;5032490;28;20235;-67
2023/09/21 04:46:20;;;;;;;4.33;2.50;;;;;;;;;;5032611;28;20225;-67
2023/09/21 04:48:46;;;;;;;4.67;2.97;;;;;;;;;;5031282;28;20179;-67
2023/09/21 04:51:15;;;;;;;7.97;2.90;;;;;;;;;;5031106;28;20299;-67
2023/09/21 04:53:42;;;;;;;4.27;2.77;;;;;;;;;;5032430;28;20661;-67
2023/09/21 04:56:08;;;;;;;5.63;3.27;;;;;;;;;;5031147;28;20218;-67
2023/09/21 04:58:34;;;;;;;4.93;3.33;;;;;;;;;;5032340;28;20552;-67
2023/09/21 05:01:09;;;;;;;5.03;2.80;;;;;;;;;;5030862;28;20314;-67
2023/09/21 05:03:35;;;;;;;4.20;2.80;;;;;;;;;;5034638;28;20199;-67
2023/09/21 05:06:02;;;;;;;5.17;2.97;;;;;;;;;;5034982;28;20266;-66
2023/09/21 05:08:29;;;;;;;4.43;3.00;;;;;;;;;;5036684;28;20221;-67
2023/09/21 05:10:55;;;;;;;4.70;2.80;;;;;;;;;;5034455;28;20685;-67
2023/09/21 05:13:21;;;;;;;3.67;2.57;;;;;;;;;;5035719;28;20229;-67
2023/09/21 05:15:48;;;;;;;7.13;2.60;;;;;;;;;;5034439;28;20185;-67
2023/09/21 05:18:16;;;;;;;6.13;2.80;;;;;;;;;;5035938;28;20183;-67
2023/09/21 05:20:44;;;;;;;3.50;2.80;;;;;;;;;;5034297;28;20256;-67
2023/09/21 05:23:10;;;;;;;4.07;2.77;;;;;;;;;;5035648;28;22056;-67
2023/09/21 05:25:36;;;;;;;8.07;2.87;;;;;;;;;;5034406;28;20218;-67
2023/09/21 05:28:02;;;;;;;3.67;2.63;;;;;;;;;;5034296;28;20182;-66
2023/09/21 05:30:29;;;;;;;5.77;3.33;;;;;;;;;;5034281;28;20176;-66
2023/09/21 05:33:01;;;;;;;5.57;3.13;;;;;;;;;;5035970;28;20194;-68
2023/09/21 05:35:27;;;;;;;5.60;2.80;;;;;;;;;;5034513;28;20171;-67
2023/09/21 05:37:53;;;;;;;3.70;2.90;;;;;;;;;;5034581;28;20190;-67
2023/09/21 05:40:21;;;;;;;5.17;3.07;;;;;;;;;;5035840;28;20176;-68
2023/09/21 05:42:47;;;;;;;3.73;2.90;;;;;;;;;;5035806;28;20221;-66
2023/09/21 05:45:13;;;;;;;6.33;2.97;;;;;;;;;;5034193;28;20310;-67
2023/09/21 05:47:39;;;;;;;3.53;2.60;;;;;;;;;;5035447;28;20629;-65
2023/09/21 05:50:06;;;;;;;3.03;2.57;;;;;;;;;;5035551;28;20175;-66
2023/09/21 05:52:34;;;;;;;4.00;2.77;;;;;;;;;;5035832;28;20218;-66
2023/09/21 05:55:00;;;;;;;5.37;2.77;;;;;;;;;;5036725;28;20179;-66
2023/09/21 05:57:27;;;;;;;4.80;3.00;;;;;;;;;;5034676;28;20234;-67
2023/09/21 05:59:53;;;;;;;5.13;2.87;;;;;;;;;;5035265;28;20182;-67
2023/09/21 06:02:19;;;;;;;4.33;2.77;;;;;;;;;;5035064;28;20226;-66
2023/09/21 06:04:46;;;;;;;4.87;3.70;;;;;;;;;;5035030;28;20214;-66
2023/09/21 06:07:12;;;;;;;7.37;3.57;;;;;;;;;;5037196;28;20253;-67
2023/09/21 06:09:38;;;;;;;5.80;3.17;;;;;;;;;;5035411;28;20183;-66
2023/09/21 06:12:10;;;;;;;9.13;3.27;;;;;;;;;;5034462;28;20199;-66
2023/09/21 06:14:36;;;;;;;5.17;3.10;;;;;;;;;;5034359;28;20171;-67
2023/09/21 06:17:05;;;;;;;10.47;3.47;;;;;;;;;;5034804;28;20327;-67
2023/09/21 06:19:32;;;;;;;7.23;3.43;;;;;;;;;;5035297;28;20606;-67
2023/09/21 06:21:58;;;;;;;6.53;3.57;;;;;;;;;;5035517;28;20218;-65
2023/09/21 06:24:25;;;;;;;5.57;3.03;;;;;;;;;;5033867;28;20261;-67
2023/09/21 06:26:54;;;;;;;6.60;3.40;;;;;;;;;;5035453;28;20177;-67
2023/09/21 06:29:22;;;;;;;4.93;3.03;;;;;;;;;;5034642;28;20179;-67
2023/09/21 06:31:48;;;;;;;8.83;3.20;;;;;;;;;;5034555;28;20665;-67
2023/09/21 06:34:18;;;;;;;6.07;3.20;;;;;;;;;;5033038;28;20194;-68
2023/09/21 06:36:44;;;;;;;4.47;3.33;;;;;;;;;;5033222;28;20237;-67
2023/09/21 06:39:11;;;;;;;5.50;3.40;;;;;;;;;;5032840;28;20187;-67
2023/09/21 06:41:40;;;;;;;5.27;2.93;;;;;;;;;;5032841;28;20673;-67
2023/09/21 06:44:06;;;;;;;5.90;2.93;;;;;;;;;;5032828;28;20270;-67
2023/09/21 06:46:32;;;;;;;6.00;3.20;;;;;;;;;;5033174;28;20563;-66
2023/09/21 06:49:01;;;;;;;4.27;2.90;;;;;;;;;;5034581;28;20175;-67
2023/09/21 06:51:27;;;;;;;5.83;3.10;;;;;;;;;;5032751;28;20203;-67
2023/09/21 06:53:53;;;;;;;4.00;2.90;;;;;;;;;;5033936;28;20179;-67
2023/09/21 06:56:21;;;;;;;4.70;2.87;;;;;;;;;;5033742;28;20653;-66
2023/09/21 06:58:47;;;;;;;3.13;2.63;;;;;;;;;;5034075;28;20229;-67
2023/09/21 07:01:13;;;;;;;3.57;2.60;;;;;;;;;;5032262;28;20223;-67
2023/09/21 07:03:40;;;;;;;6.10;2.57;;;;;;;;;;5032362;28;20203;-67
2023/09/21 07:06:06;;;;;;;3.80;2.90;;;;;;;;;;5033892;28;20183;-67
2023/09/21 07:08:32;;;;;;;7.77;3.10;;;;;;;;;;5033726;28;20206;-67
2023/09/21 07:10:58;;;;;;;4.57;2.43;;;;;;;;;;5032223;28;20234;-67
2023/09/21 07:13:24;;;;;;;4.83;3.00;;;;;;;;;;5032302;28;20225;-67
2023/09/21 07:15:52;;;;;;;4.67;3.00;;;;;;;;;;5032222;28;20179;-67
2023/09/21 07:18:18;;;;;;;3.70;2.87;;;;;;;;;;5032252;28;20187;-66
2023/09/21 07:20:44;;;;;;;8.60;3.17;;;;;;;;;;5032149;28;20214;-67
2023/09/21 07:23:10;;;;;;;6.67;3.53;;;;;;;;;;5033605;28;20179;-66
2023/09/21 07:25:37;;;;;;;6.40;3.87;;;;;;;;;;5031807;28;20179;-66
2023/09/21 07:28:03;;;;;;;11.17;3.97;;;;;;;;;;5032822;28;20190;-66
2023/09/21 07:30:31;;;;;;;6.23;3.23;;;;;;;;;;5032365;28;20214;-66
2023/09/21 07:32:57;;;;;;;6.20;3.93;;;;;;;;;;5033611;28;20175;-66
2023/09/21 07:35:23;;;;;;;9.77;3.30;;;;;;;;;;5032082;28;20182;-66
2023/09/21 07:37:49;;;;;;;5.93;3.67;;;;;;;;;;5033779;28;20199;-66
2023/09/21 07:40:16;;;;;;;6.93;3.33;;;;;;;;;;5031833;28;20183;-68
2023/09/21 07:42:45;;;;;;;7.70;3.43;;;;;;;;;;5033613;28;20218;-68
2023/09/21 07:45:12;;;;;;;5.20;3.30;;;;;;;;;;5031874;28;20616;-66
2023/09/21 07:47:39;;;;;;;6.33;3.67;;;;;;;;;;5032253;28;20203;-67
2023/09/21 07:50:05;;;;;;;6.27;4.00;;;;;;;;;;5033222;28;20171;-67
2023/09/21 07:52:33;;;;;;;6.23;3.27;;;;;;;;;;5033236;28;20647;-67
2023/09/21 07:54:59;;;;;;;4.47;3.43;;;;;;;;;;5033921;28;20210;-67
2023/09/21 07:57:26;;;;;;;7.07;3.23;;;;;;;;;;5032925;28;20182;-67
2023/09/21 07:59:52;;;;;;;4.83;3.17;;;;;;;;;;5031720;28;20646;-67
2023/09/21 08:02:18;;;;;;;6.97;3.07;;;;;;;;;;5033950;28;20222;-69
2023/09/21 08:04:44;;;;;;;7.57;3.33;;;;;;;;;;5033261;28;20210;-68
2023/09/21 08:07:10;;;;;;;5.47;3.13;;;;;;;;;;5033383;28;20555;-67
2023/09/21 08:09:36;;;;;;;7.30;3.10;;;;;;;;;;5033642;28;20175;-69
2023/09/21 08:12:02;;;;;;;6.70;3.40;;;;;;;;;;5033234;28;20206;-68
2023/09/21 08:14:29;;;;;;;7.27;3.23;;;;;;;;;;5033817;28;20254;-69
2023/09/21 08:16:56;;;;;;;5.67;3.60;;;;;;;;;;5033498;28;20633;-68
2023/09/21 08:19:22;;;;;;;7.93;5.10;;;;;;;;;;5031909;28;20186;-69
2023/09/21 08:21:48;;;;;;;13.33;7.90;;;;;;;;;;5033197;28;20199;-69
2023/09/21 08:24:14;;;;;;;8.73;5.80;;;;;;;;;;5033019;28;20215;-69
2023/09/21 08:26:40;;;;;;;9.30;5.67;;;;;;;;;;5033150;28;20179;-69
2023/09/21 08:29:06;;;;;;;9.63;5.20;;;;;;;;;;5033713;28;20179;-69
2023/09/21 08:31:32;;;;;;;13.40;5.27;;;;;;;;;;5033530;28;20195;-68
2023/09/21 08:33:59;;;;;;;9.53;5.13;;;;;;;;;;5031919;28;20237;-69
2023/09/21 08:36:25;;;;;;;6.40;4.70;;;;;;;;;;5033908;28;20179;-69
2023/09/21 08:38:53;;;;;;;10.10;3.83;;;;;;;;;;5037025;28;20190;-69
2023/09/21 08:41:19;;;;;;;7.67;4.97;;;;;;;;;;5035409;28;20691;-69
2023/09/21 08:43:45;;;;;;;12.20;6.53;;;;;;;;;;5035229;28;20206;-69
2023/09/21 08:46:13;;;;;;;14.53;9.00;;;;;;;;;;5035412;28;20186;-69
2023/09/21 08:48:40;;;;;;;14.43;8.27;;;;;;;;;;5036608;28;20203;-69
2023/09/21 08:51:11;;;;;;;15.30;9.10;;;;;;;;;;5035174;28;20198;-69
2023/09/21 08:53:39;;;;;;;13.47;7.20;;;;;;;;;;5035142;28;20183;-70
2023/09/21 08:56:05;;;;;;;9.97;6.17;;;;;;;;;;5036510;28;20181;-69
2023/09/21 08:58:37;;;;;;;13.33;6.20;;;;;;;;;;5037034;28;20175;-70
2023/09/21 09:01:03;;;;;;;13.50;4.87;;;;;;;;;;5036620;28;20211;-70
2023/09/21 09:03:30;;;;;;;5.40;3.30;;;;;;;;;;5034981;28;20199;-70
2023/09/21 09:05:58;;;;;;;9.37;3.90;;;;;;;;;;5036326;28;20179;-69
2023/09/21 09:08:25;;;;;;;9.00;4.37;;;;;;;;;;5036226;28;20171;-69
2023/09/21 09:10:53;;;;;;;7.03;3.93;;;;;;;;;;5034949;28;20195;-69
2023/09/21 09:13:19;;;;;;;10.03;4.90;;;;;;;;;;5036675;28;20258;-69
2023/09/21 09:15:45;;;;;;;9.20;4.23;;;;;;;;;;5036392;28;20543;-70
2023/09/21 09:18:14;;;;;;;7.80;2.97;;;;;;;;;;5035945;28;20641;-70
2023/09/21 09:20:42;;;;;;;4.87;2.67;;;;;;;;;;5034807;28;20536;-69
2023/09/21 09:23:10;;;;;;;5.73;2.50;;;;;;;;;;5036394;28;20171;-70
2023/09/21 09:25:39;;;;;;;7.67;3.10;;;;;;;;;;5034844;28;20581;-70
2023/09/21 09:28:08;;;;;;;7.73;2.93;;;;;;;;;;5036155;28;20172;-70
2023/09/21 09:30:35;;;;;;;7.37;3.10;;;;;;;;;;5036715;28;20605;-70
2023/09/21 09:33:02;;;;;;;3.03;2.37;;;;;;;;;;5037285;28;20233;-69
2023/09/21 09:35:30;;;;;;;4.57;2.57;;;;;;;;;;5035513;28;20187;-70
2023/09/21 09:37:57;;;;;;;5.13;2.37;;;;;;;;;;5036374;28;20178;-69
2023/09/21 09:40:28;;;;;;;3.47;2.33;;;;;;;;;;5035994;28;20649;-71
2023/09/21 09:42:56;;;;;;;4.53;2.40;;;;;;;;;;5036329;28;20190;-71
2023/09/21 09:45:24;;;;;;;2.83;2.40;;;;;;;;;;5034672;28;20247;-68
2023/09/21 09:48:01;;;;;;;6.40;2.70;;;;;;;;;;5036074;28;20175;-71
2023/09/21 09:50:33;;;;;;;4.87;2.30;;;;;;;;;;5035923;28;20155;-69
2023/09/21 09:53:02;;;;;;;4.23;2.80;;;;;;;;;;5036322;28;20497;-71
2023/09/21 09:55:33;;;;;;;6.20;2.70;;;;;;;;;;5036364;28;20620;-71
2023/09/21 09:58:00;;;;;;;3.47;2.67;;;;;;;;;;5036072;28;20163;-72
2023/09/21 10:00:27;;;;;;;4.83;2.60;;;;;;;;;;5035645;28;20609;-70
2023/09/21 10:02:55;;;;;;;7.20;2.50;;;;;;;;;;5034854;28;20282;-71
2023/09/21 10:05:21;;;;;;;3.43;2.60;;;;;;;;;;5036412;28;20202;-70
2023/09/21 10:07:49;;;;;;;3.90;2.37;;;;;;;;;;5034782;28;20185;-71
2023/09/21 10:10:19;;;;;;;5.07;2.67;;;;;;;;;;5058237;22;20245;-69
2023/09/21 10:12:46;;;;;;;3.43;2.47;;;;;;;;;;5034903;28;20637;-69
2023/09/21 10:15:16;;;;;;;4.73;2.60;;;;;;;;;;5034424;28;20265;-68
2023/09/21 10:17:42;;;;;;;3.73;2.57;;;;;;;;;;5016843;28;20171;-69
2023/09/21 10:20:15;;;;;;;5.03;2.90;;;;;;;;;;5034490;28;20195;-69
2023/09/21 10:22:44;;;;;;;6.93;3.60;;;;;;;;;;5034602;28;20247;-69
2023/09/21 10:25:18;;;;;;;4.77;3.40;;;;;;;;;;5034390;28;20276;-69
2023/09/21 10:27:46;;;;;;;6.60;3.37;;;;;;;;;;5016685;28;20210;-69
2023/09/21 10:30:15;;;;;;;8.77;3.17;;;;;;;;;;5034225;28;20318;-69
2023/09/21 10:32:49;;;;;;;5.70;4.03;;;;;;;;;;5034274;28;20339;-69
2023/09/21 10:35:21;;;;;;;4.13;3.17;;;;;;;;;;5016677;28;20190;-69
2023/09/21 10:37:51;;;;;;;7.67;3.43;;;;;;;;;;5034430;28;20258;-69
2023/09/21 10:40:25;;;;;;;6.23;3.30;;;;;;;;;;5034095;28;20210;-69
2023/09/21 10:42:51;;;;;;;4.77;2.87;;;;;;;;;;5034316;28;20171;-69
2023/09/21 10:45:17;;;;;;;3.67;2.90;;;;;;;;;;5033953;28;20198;-70
2023/09/21 10:47:51;;;;;;;7.47;3.20;;;;;;;;;;5016951;28;20544;-69
2023/09/21 10:50:19;;;;;;;4.87;2.83;;;;;;;;;;5033838;28;20191;-67
2023/09/21 10:52:51;;;;;;;5.53;2.70;;;;;;;;;;5016092;28;20688;-67
2023/09/21 10:55:17;;;;;;;10.13;2.93;;;;;;;;;;5034343;28;20173;-69
2023/09/21 10:57:44;;;;;;;4.57;2.50;;;;;;;;;;5034373;28;20600;-70
2023/09/21 11:00:16;;;;;;;7.70;3.20;;;;;;;;;;5015001;28;20240;-69
2023/09/21 11:02:44;;;;;;;3.67;2.37;;;;;;;;;;5034041;28;20656;-69
2023/09/21 11:05:10;;;;;;;5.10;2.40;;;;;;;;;;5033838;28;20207;-70
2023/09/21 11:07:37;;;;;;;7.27;3.73;;;;;;;;;;5015796;28;20210;-70
2023/09/21 11:10:05;;;;;;;6.50;3.50;;;;;;;;;;5033527;28;20218;-70
2023/09/21 11:12:31;;;;;;;4.97;2.90;;;;;;;;;;5033403;28;20253;-70
2023/09/21 11:14:57;;;;;;;4.73;2.50;;;;;;;;;;5015841;28;20215;-69
2023/09/21 11:17:23;;;;;;;9.73;2.80;;;;;;;;;;5015784;28;20179;-69
2023/09/21 11:19:50;;;;;;;4.93;2.53;;;;;;;;;;5015541;28;20276;-69
2023/09/21 11:22:16;;;;;;;3.40;2.60;;;;;;;;;;5015676;28;20183;-68
2023/09/21 11:24:42;;;;;;;4.17;3.10;;;;;;;;;;5015561;28;20207;-69
2023/09/21 11:27:10;;;;;;;4.57;2.80;;;;;;;;;;5033224;28;20259;-70
2023/09/21 11:29:39;;;;;;;5.10;2.87;;;;;;;;;;5033108;28;20201;-69
2023/09/21 11:32:07;;;;;;;5.50;2.90;;;;;;;;;;5033108;28;20175;-69
2023/09/21 11:34:35;;;;;;;4.87;3.17;;;;;;;;;;5033061;28;20186;-70
2023/09/21 11:37:03;;;;;;;7.80;3.30;;;;;;;;;;5034968;28;20649;-69
2023/09/21 11:39:29;;;;;;;6.97;3.80;;;;;;;;;;5035433;28;20252;-69
2023/09/21 11:41:56;;;;;;;6.50;3.80;;;;;;;;;;5016165;28;20554;-69
2023/09/21 11:44:26;;;;;;;4.73;3.73;;;;;;;;;;5015404;28;20218;-69
2023/09/21 11:46:52;;;;;;;5.40;3.60;;;;;;;;;;5015708;28;20194;-69
2023/09/21 11:49:18;;;;;;;5.87;3.13;;;;;;;;;;5033638;28;20677;-69
2023/09/21 11:51:44;;;;;;;7.50;3.90;;;;;;;;;;5015641;28;20183;-69
2023/09/21 11:54:11;;;;;;;9.00;4.40;;;;;;;;;;5033266;28;20189;-70
2023/09/21 11:56:38;;;;;;;5.63;3.70;;;;;;;;;;5033228;28;20183;-70
2023/09/21 11:59:06;;;;;;;4.80;3.80;;;;;;;;;;5015463;28;20234;-69
2023/09/21 12:01:34;;;;;;;7.60;4.30;;;;;;;;;;5015468;28;20595;-69
2023/09/21 12:04:03;;;;;;;9.03;4.00;;;;;;;;;;5033166;28;20672;-70
2023/09/21 12:06:32;;;;;;;6.53;4.30;;;;;;;;;;5015161;28;20186;-70
2023/09/21 12:08:58;;;;;;;6.83;4.50;;;;;;;;;;5032539;28;20209;-70
2023/09/21 12:11:24;;;;;;;6.63;4.07;;;;;;;;;;5015586;28;20167;-70
2023/09/21 12:13:50;;;;;;;5.93;3.97;;;;;;;;;;5019018;28;20655;-70
2023/09/21 12:16:16;;;;;;;7.63;4.23;;;;;;;;;;5019050;28;20190;-69
2023/09/21 12:18:43;;;;;;;6.93;3.33;;;;;;;;;;5036889;28;20571;-70
2023/09/21 12:21:09;;;;;;;5.97;3.93;;;;;;;;;;5036804;28;20171;-70
2023/09/21 12:23:35;;;;;;;5.10;3.47;;;;;;;;;;5036810;28;20281;-70
2023/09/21 12:26:01;;;;;;;7.00;4.07;;;;;;;;;;5018807;28;20569;-69
2023/09/21 12:28:27;;;;;;;5.37;3.20;;;;;;;;;;5036700;28;20656;-69
2023/09/21 12:30:54;;;;;;;6.10;2.83;;;;;;;;;;5018708;28;20183;-69
2023/09/21 12:33:20;;;;;;;5.10;2.93;;;;;;;;;;5036705;28;20720;-69
2023/09/21 12:35:46;;;;;;;6.80;3.63;;;;;;;;;;5018681;28;20266;-69
2023/09/21 12:38:13;;;;;;;18.83;8.10;;;;;;;;;;5037320;28;20691;-70
2023/09/21 12:40:39;;;;;;;18.87;8.23;;;;;;;;;;5036114;28;20195;-69
2023/09/21 12:43:09;;;;;;;23.63;9.87;;;;;;;;;;5036539;28;20262;-69
2023/09/21 12:45:37;;;;;;;29.77;12.47;;;;;;;;;;5018647;28;20661;-69
2023/09/21 12:48:07;;;;;;;12.30;6.00;;;;;;;;;;5036467;28;20270;-70
2023/09/21 12:50:33;;;;;;;22.07;8.70;;;;;;;;;;5036560;28;20673;-70
2023/09/21 12:52:59;;;;;;;11.30;6.10;;;;;;;;;;5019168;28;20184;-70
2023/09/21 12:55:25;;;;;;;9.07;5.17;;;;;;;;;;5018451;28;20183;-70
2023/09/21 12:57:51;;;;;;;6.70;4.40;;;;;;;;;;5036271;28;20183;-70
2023/09/21 13:00:17;;;;;;;10.60;4.20;;;;;;;;;;5018382;28;20284;-70
2023/09/21 13:02:44;;;;;;;5.57;3.40;;;;;;;;;;5018453;28;20186;-70
2023/09/21 13:05:14;;;;;;;3.97;2.90;;;;;;;;;;5018171;28;20305;-70
2023/09/21 13:07:40;;;;;;;19.33;4.30;;;;;;;;;;5018089;28;20559;-70
2023/09/21 13:10:07;;;;;;;11.60;4.57;;;;;;;;;;5036012;28;20268;-71
2023/09/21 13:12:33;;;;;;;11.53;4.83;;;;;;;;;;5036648;28;20172;-70
2023/09/21 13:15:01;;;;;;;11.03;5.10;;;;;;;;;;5018669;28;20565;-70
2023/09/21 13:17:27;;;;;;;14.57;6.23;;;;;;;;;;5019364;28;20179;-70
2023/09/21 13:19:54;;;;;;;19.60;7.90;;;;;;;;;;5036638;28;20195;-70
2023/09/21 13:22:20;;;;;;;15.13;7.40;;;;;;;;;;5018849;28;20627;-70
2023/09/21 13:24:46;;;;;;;19.70;7.23;;;;;;;;;;5017382;28;20241;-70
2023/09/21 13:27:13;;;;;;;12.63;6.97;;;;;;;;;;5036721;28;20213;-70
2023/09/21 13:29:39;;;;;;;10.83;6.27;;;;;;;;;;5018865;28;20681;-70
2023/09/21 13:32:05;;;;;;;12.43;6.13;;;;;;;;;;5036883;28;20542;-70
2023/09/21 13:34:31;;;;;;;26.60;19.20;;;;;;;;;;5018718;28;20187;-70
2023/09/21 13:36:57;;;;;;;31.00;21.83;;;;;;;;;;5018731;28;20405;-70
2023/09/21 13:39:23;;;;;;;28.17;17.40;;;;;;;;;;5018216;28;20199;-71
2023/09/21 13:41:53;;;;;;;17.33;13.87;;;;;;;;;;5018346;28;20186;-71
2023/09/21 13:44:19;;;;;;;14.50;11.33;;;;;;;;;;5017883;28;20206;-71
2023/09/21 13:46:45;;;;;;;18.57;11.80;;;;;;;;;;5017930;28;20663;-72
2023/09/21 13:49:11;;;;;;;19.07;10.03;;;;;;;;;;5017841;28;20202;-71
2023/09/21 13:51:38;;;;;;;13.47;8.47;;;;;;;;;;5035164;28;20186;-70
2023/09/21 13:54:05;;;;;;;11.10;6.17;;;;;;;;;;5035147;28;20171;-70
2023/09/21 13:56:31;;;;;;;11.20;6.77;;;;;;;;;;5035094;28;20194;-70
2023/09/21 13:58:57;;;;;;;10.10;6.30;;;;;;;;;;5017308;28;20293;-70
2023/09/21 14:01:24;;;;;;;12.03;5.73;;;;;;;;;;5035208;28;20223;-70
2023/09/21 14:03:50;;;;;;;9.80;5.90;;;;;;;;;;5034988;28;20199;-70
2023/09/21 14:06:16;;;;;;;12.30;5.63;;;;;;;;;;5017220;28;20179;-69
2023/09/21 14:08:43;;;;;;;9.00;5.60;;;;;;;;;;5035165;28;20598;-70
2023/09/21 14:11:09;;;;;;;9.60;5.57;;;;;;;;;;5035198;28;20539;-69
2023/09/21 14:13:35;;;;;;;10.60;6.30;;;;;;;;;;5016852;28;20183;-69
2023/09/21 14:16:02;;;;;;;10.50;6.67;;;;;;;;;;5035046;28;20175;-71
2023/09/21 14:18:28;;;;;;;12.90;6.33;;;;;;;;;;5034886;28;20175;-71
2023/09/21 14:20:54;;;;;;;8.40;5.90;;;;;;;;;;5042437;28;20183;-71
2023/09/21 14:23:21;;;;;;;10.23;5.77;;;;;;;;;;5042163;28;20192;-70
2023/09/21 14:25:48;;;;;;;13.00;6.67;;;;;;;;;;5039927;28;20705;-70
2023/09/21 14:28:14;;;;;;;11.07;5.67;;;;;;;;;;5016807;28;20266;-70
2023/09/21 14:30:40;;;;;;;6.60;4.90;;;;;;;;;;5034277;28;20227;-70
2023/09/21 14:33:07;;;;;;;11.00;4.93;;;;;;;;;;5034314;28;20182;-70
2023/09/21 14:35:34;;;;;;;5.67;4.00;;;;;;;;;;5016636;28;20564;-70
2023/09/21 14:38:01;;;;;;;3.70;3.00;;;;;;;;;;5016861;28;20190;-70
2023/09/21 14:40:26;;;;;;;6.60;3.57;;;;;;;;;;5034457;28;20203;-70
2023/09/21 14:42:53;;;;;;;4.20;3.23;;;;;;;;;;5034846;28;20308;-70